KACB/ACB METAR and TAF weather

Enter ICAO airport designator
Station Type Date Time Source
KACB METAR 2022/07/01 00:35 UTC NOAA

KACB 010035Z AUTO 21004KT 10SM CLR 26/17 A2983 RMK AO2 T02620171


Station Type Date Time Source
KACB Decoded METAR 2022/07/01 00:35 UTC NOAA

Bellaire, Antrim County Airport, MI, United States (KACB) 44-59-18N 085-11-54W
Jun 30, 2022 - 08:35 PM EDT / 2022.07.01 0035 UTC
Wind: from the SSW (210 degrees) at 5 MPH (4 KT):0
Visibility: 10 mile(s):0
Sky conditions: clear
Temperature: 79.2 F (26.2 C)
Dew Point: 62.8 F (17.1 C)
Relative Humidity: 57%
Pressure (altimeter): 29.83 in. Hg (1010 hPa)
ob: KACB 010035Z AUTO 21004KT 10SM CLR 26/17 A2983 RMK AO2 T02620171
cycle: 0

Station Type Date Time Source
KACB TAF UTC NOAA

Error!

Example: see airport list